createdAt,value
2022-12-09T00:00:27.905Z,15.57
2022-12-09T00:02:54.548Z,15.70
2022-12-09T00:05:21.524Z,16.43
2022-12-09T00:07:48.354Z,16.00
2022-12-09T00:10:15.218Z,15.90
2022-12-09T00:12:42.083Z,15.37
2022-12-09T00:15:08.998Z,15.30
2022-12-09T00:17:35.713Z,16.93
2022-12-09T00:20:02.576Z,16.90
2022-12-09T00:22:29.369Z,16.40
2022-12-09T00:24:55.956Z,17.03
2022-12-09T00:27:22.629Z,15.20
2022-12-09T00:29:49.120Z,16.33
2022-12-09T00:32:16.086Z,17.60
2022-12-09T00:34:43.096Z,16.50
2022-12-09T00:37:09.627Z,16.20
2022-12-09T00:39:36.508Z,18.07
2022-12-09T00:42:03.899Z,18.77
2022-12-09T00:44:30.390Z,16.73
2022-12-09T00:46:57.019Z,18.27
2022-12-09T00:49:24.770Z,18.13
2022-12-09T00:51:54.062Z,20.30
2022-12-09T00:54:21.687Z,20.60
2022-12-09T00:56:48.349Z,19.30
2022-12-09T00:59:14.845Z,19.70
2022-12-09T01:01:41.987Z,17.70
2022-12-09T01:04:09.030Z,17.47
2022-12-09T01:06:35.785Z,18.13
2022-12-09T01:09:03.489Z,17.57
2022-12-09T01:11:30.747Z,17.17
2022-12-09T01:14:02.645Z,17.63
2022-12-09T01:16:33.501Z,17.03
2022-12-09T01:19:02.648Z,18.67
2022-12-09T01:21:31.481Z,17.73
2022-12-09T01:23:58.207Z,16.40
2022-12-09T01:26:25.335Z,18.30
2022-12-09T01:28:53.069Z,15.20
2022-12-09T01:31:23.106Z,16.90
2022-12-09T01:33:50.141Z,16.67
2022-12-09T01:36:20.331Z,16.93
2022-12-09T01:38:48.601Z,17.63
2022-12-09T01:41:17.169Z,16.77
2022-12-09T01:43:45.307Z,17.60
2022-12-09T01:46:12.331Z,17.33
2022-12-09T01:48:46.461Z,16.37
2022-12-09T01:51:17.473Z,16.37
2022-12-09T01:53:47.693Z,15.50
2022-12-09T01:56:21.880Z,16.67
2022-12-09T01:58:49.768Z,14.73
2022-12-09T02:01:18.175Z,16.13
2022-12-09T02:03:45.008Z,16.80
2022-12-09T02:06:12.708Z,14.70
2022-12-09T02:08:40.297Z,15.67
2022-12-09T02:11:26.094Z,14.80
2022-12-09T02:14:29.608Z,14.90
2022-12-09T02:17:25.984Z,14.50
2022-12-09T02:20:03.228Z,15.27
2022-12-09T02:22:40.457Z,15.40
2022-12-09T02:25:21.782Z,15.50
2022-12-09T02:28:25.875Z,15.60
2022-12-09T02:31:12.007Z,15.00
2022-12-09T02:34:13.618Z,14.87
2022-12-09T02:36:59.607Z,15.00
2022-12-09T02:39:35.432Z,14.13
2022-12-09T02:42:06.274Z,15.20
2022-12-09T02:44:37.913Z,14.73
2022-12-09T02:47:08.783Z,14.73
2022-12-09T02:49:37.834Z,15.10
2022-12-09T02:52:07.005Z,15.43
2022-12-09T02:54:37.317Z,14.60
2022-12-09T02:57:12.282Z,14.83
2022-12-09T02:59:38.909Z,14.47
2022-12-09T03:02:20.155Z,15.27
2022-12-09T03:05:01.894Z,13.63
2022-12-09T03:07:42.149Z,13.63
2022-12-09T03:10:31.143Z,14.83
2022-12-09T03:13:06.357Z,14.37
2022-12-09T03:15:37.355Z,13.80
2022-12-09T03:18:09.254Z,14.07
2022-12-09T03:20:40.826Z,14.20
2022-12-09T03:23:11.505Z,13.63
2022-12-09T03:25:43.234Z,14.33
2022-12-09T03:28:17.141Z,14.63
2022-12-09T03:30:46.018Z,14.10
2022-12-09T03:33:15.943Z,14.23
2022-12-09T03:35:46.860Z,14.63
2022-12-09T03:38:17.203Z,14.93
2022-12-09T03:40:46.436Z,14.50
2022-12-09T03:43:19.177Z,14.43
2022-12-09T03:45:46.595Z,14.93
2022-12-09T03:48:13.916Z,13.80
2022-12-09T03:50:49.483Z,14.33
2022-12-09T03:53:21.440Z,14.67
2022-12-09T03:55:55.626Z,14.37
2022-12-09T03:58:22.102Z,14.50
2022-12-09T04:00:49.442Z,14.90
2022-12-09T04:03:18.276Z,14.17
2022-12-09T04:05:45.650Z,14.97
2022-12-09T04:08:12.460Z,13.87
2022-12-09T04:10:40.387Z,14.10
2022-12-09T04:13:07.344Z,15.23
2022-12-09T04:15:34.100Z,15.03
2022-12-09T04:18:00.731Z,15.00
2022-12-09T04:20:27.439Z,14.63
2022-12-09T04:22:53.914Z,14.57
2022-12-09T04:25:20.361Z,13.83
2022-12-09T04:27:48.780Z,13.60
2022-12-09T04:30:17.108Z,13.87
2022-12-09T04:32:44.275Z,13.63
2022-12-09T04:35:11.326Z,12.93
2022-12-09T04:37:37.969Z,14.30
2022-12-09T04:40:08.558Z,13.10
2022-12-09T04:42:35.986Z,14.33
2022-12-09T04:45:03.038Z,12.97
2022-12-09T04:47:29.661Z,13.90
2022-12-09T04:49:56.408Z,13.93
2022-12-09T04:52:24.053Z,12.67
2022-12-09T04:54:51.084Z,13.93
2022-12-09T04:57:18.711Z,14.10
2022-12-09T04:59:45.833Z,14.37
2022-12-09T05:02:12.830Z,13.97
2022-12-09T05:04:40.347Z,14.03
2022-12-09T05:07:07.109Z,13.80
2022-12-09T05:09:34.304Z,14.23
2022-12-09T05:12:01.091Z,14.27
2022-12-09T05:14:28.079Z,12.97
2022-12-09T05:16:54.736Z,14.00
2022-12-09T05:19:21.868Z,13.00
2022-12-09T05:21:48.769Z,11.87
2022-12-09T05:24:16.103Z,13.53
2022-12-09T05:26:42.874Z,12.33
2022-12-09T05:29:09.873Z,14.30
2022-12-09T05:31:36.586Z,14.37
2022-12-09T05:34:03.945Z,14.37
2022-12-09T05:36:31.159Z,14.60
2022-12-09T05:38:57.924Z,14.33
2022-12-09T05:41:25.386Z,14.73
2022-12-09T05:43:52.104Z,13.73
2022-12-09T05:46:19.852Z,14.97
2022-12-09T05:48:46.858Z,15.40
2022-12-09T05:51:26.588Z,14.23
2022-12-09T05:53:54.888Z,14.73
2022-12-09T05:56:23.346Z,15.20
2022-12-09T05:58:51.000Z,15.57
2022-12-09T06:01:18.103Z,15.87
2022-12-09T06:03:50.310Z,14.23
2022-12-09T06:06:19.828Z,16.90
2022-12-09T06:08:47.286Z,15.13
2022-12-09T06:11:19.781Z,15.60
2022-12-09T06:13:47.810Z,14.57
2022-12-09T06:16:17.542Z,15.67
2022-12-09T06:18:44.510Z,14.57
2022-12-09T06:21:13.533Z,15.47
2022-12-09T06:23:42.300Z,15.23
2022-12-09T06:26:16.039Z,15.57
2022-12-09T06:28:42.911Z,16.07
2022-12-09T06:31:09.678Z,15.50
2022-12-09T06:33:54.184Z,16.13
2022-12-09T06:36:22.722Z,16.10
2022-12-09T06:38:49.553Z,15.17
2022-12-09T06:41:16.470Z,15.70
2022-12-09T06:43:43.967Z,16.27
2022-12-09T06:46:16.356Z,16.33
2022-12-09T06:48:43.589Z,14.93
2022-12-09T06:51:11.258Z,16.07
2022-12-09T06:53:38.026Z,15.60
2022-12-09T06:56:11.795Z,16.57
2022-12-09T06:58:39.783Z,17.63
2022-12-09T07:01:13.798Z,15.63
2022-12-09T07:03:45.833Z,17.40
2022-12-09T07:06:40.275Z,16.40
2022-12-09T07:09:13.442Z,16.00
2022-12-09T07:11:42.621Z,17.17
2022-12-09T07:14:10.759Z,16.73
2022-12-09T07:16:38.382Z,15.60
2022-12-09T07:19:06.205Z,15.83
2022-12-09T07:21:33.943Z,17.00
2022-12-09T07:24:02.877Z,15.53
2022-12-09T07:26:33.773Z,15.73
2022-12-09T07:29:05.130Z,16.07
2022-12-09T07:31:32.723Z,16.83
2022-12-09T07:34:00.072Z,17.87
2022-12-09T07:36:29.584Z,16.13
2022-12-09T07:39:05.588Z,17.53
2022-12-09T07:41:32.417Z,16.60
2022-12-09T07:43:59.222Z,16.83
2022-12-09T07:46:27.577Z,17.00
2022-12-09T07:48:55.446Z,16.37
2022-12-09T07:51:24.352Z,17.37
2022-12-09T07:53:52.461Z,17.03
2022-12-09T07:56:20.227Z,18.10
2022-12-09T07:58:48.922Z,17.00
2022-12-09T08:01:19.049Z,17.40
2022-12-09T08:03:47.194Z,18.40
2022-12-09T08:06:17.204Z,17.77
2022-12-09T08:08:45.316Z,17.00
2022-12-09T08:11:24.453Z,16.63
2022-12-09T08:13:52.452Z,16.57
2022-12-09T08:16:21.487Z,16.17
2022-12-09T08:18:49.778Z,17.20
2022-12-09T08:21:19.694Z,16.90
2022-12-09T08:23:47.248Z,16.30
2022-12-09T08:26:16.131Z,16.67
2022-12-09T08:28:45.056Z,16.13
2022-12-09T08:31:24.596Z,16.77
2022-12-09T08:33:52.565Z,16.43
2022-12-09T08:36:22.489Z,17.20
2022-12-09T08:38:49.435Z,19.20
2022-12-09T08:41:37.735Z,15.87
2022-12-09T08:44:08.783Z,16.03
2022-12-09T08:46:37.208Z,15.37
2022-12-09T08:49:05.373Z,16.23
2022-12-09T08:51:33.270Z,16.93
2022-12-09T08:54:01.254Z,15.47
2022-12-09T08:56:28.522Z,16.00
2022-12-09T08:58:56.481Z,19.60
2022-12-09T09:01:26.263Z,19.50
2022-12-09T09:03:53.760Z,21.03
2022-12-09T09:06:20.982Z,20.20
2022-12-09T09:08:47.933Z,18.70
2022-12-09T09:11:18.240Z,17.30
2022-12-09T09:13:47.867Z,18.60
2022-12-09T09:16:17.591Z,17.03
2022-12-09T09:18:45.604Z,16.63
2022-12-09T09:21:15.396Z,16.90
2022-12-09T09:23:43.100Z,18.07
2022-12-09T09:26:15.243Z,17.67
2022-12-09T09:28:42.674Z,16.73
2022-12-09T09:31:14.325Z,16.43
2022-12-09T09:33:41.764Z,16.57
2022-12-09T09:36:14.166Z,17.80
2022-12-09T09:38:41.148Z,16.57
2022-12-09T09:41:20.223Z,16.57
2022-12-09T09:43:47.841Z,17.37
2022-12-09T09:46:24.440Z,16.37
2022-12-09T09:48:53.038Z,16.67
2022-12-09T09:51:21.177Z,18.13
2022-12-09T09:53:51.332Z,19.50
2022-12-09T09:56:45.783Z,17.70
2022-12-09T09:59:34.893Z,19.73
2022-12-09T10:02:12.005Z,18.57
2022-12-09T10:04:51.101Z,17.50
2022-12-09T10:07:38.584Z,18.00
2022-12-09T10:10:13.534Z,17.70
2022-12-09T10:13:17.980Z,19.73
2022-12-09T10:16:18.930Z,17.13
2022-12-09T10:19:04.174Z,16.93
2022-12-09T10:21:40.255Z,15.63
2022-12-09T10:24:27.139Z,15.77
2022-12-09T10:27:12.659Z,15.97
2022-12-09T10:29:49.944Z,16.73
2022-12-09T10:32:21.366Z,17.87
2022-12-09T10:34:48.733Z,16.67
2022-12-09T10:37:36.092Z,18.00
2022-12-09T10:40:13.201Z,17.07
2022-12-09T10:43:05.706Z,19.00
2022-12-09T10:46:07.962Z,18.03
2022-12-09T10:48:37.637Z,18.57
2022-12-09T10:51:11.593Z,19.20
2022-12-09T10:53:55.971Z,19.77
2022-12-09T10:56:25.985Z,19.90
2022-12-09T10:59:25.671Z,18.07
2022-12-09T11:02:11.091Z,16.83
2022-12-09T11:04:40.679Z,19.07
2022-12-09T11:07:08.028Z,18.07
2022-12-09T11:09:37.946Z,18.80
2022-12-09T11:12:07.941Z,18.83
2022-12-09T11:14:39.026Z,18.53
2022-12-09T11:17:24.311Z,19.17
2022-12-09T11:19:54.252Z,18.53
2022-12-09T11:22:28.316Z,19.23
2022-12-09T11:25:27.230Z,18.77
2022-12-09T11:27:59.077Z,19.47
2022-12-09T11:30:30.681Z,17.60
2022-12-09T11:33:08.770Z,19.40
2022-12-09T11:35:45.102Z,21.13
2022-12-09T11:38:23.030Z,20.10
2022-12-09T11:41:07.497Z,18.70
2022-12-09T11:43:54.284Z,20.60
2022-12-09T11:46:29.768Z,19.63
2022-12-09T11:49:03.186Z,18.70
2022-12-09T11:51:36.233Z,19.87
2022-12-09T11:54:22.038Z,19.80
2022-12-09T11:56:50.222Z,20.83
2022-12-09T11:59:22.505Z,21.07
2022-12-09T12:02:29.549Z,19.17
2022-12-09T12:05:03.462Z,19.60
2022-12-09T12:07:43.959Z,19.50
2022-12-09T12:10:22.488Z,19.20
2022-12-09T12:13:02.393Z,19.70
2022-12-09T12:15:46.997Z,20.40
2022-12-09T12:18:19.395Z,20.73
2022-12-09T12:21:07.752Z,20.53
2022-12-09T12:23:34.168Z,20.53
2022-12-09T12:26:15.926Z,19.57
2022-12-09T12:29:07.459Z,20.47
2022-12-09T12:31:59.316Z,19.93
2022-12-09T12:34:44.863Z,18.80
2022-12-09T12:37:57.436Z,18.63
2022-12-09T12:40:48.291Z,17.37
2022-12-09T12:43:48.955Z,17.83
2022-12-09T12:46:30.678Z,17.43
2022-12-09T12:49:15.886Z,17.47
2022-12-09T12:52:47.298Z,18.50
2022-12-09T12:55:43.737Z,17.30
2022-12-09T12:58:28.893Z,17.60
2022-12-09T13:01:01.153Z,17.60
2022-12-09T13:03:38.473Z,18.87
2022-12-09T13:06:08.968Z,17.30
2022-12-09T13:08:41.657Z,17.90
2022-12-09T13:11:16.879Z,18.30
2022-12-09T13:14:07.010Z,17.77
2022-12-09T13:16:41.262Z,18.50
2022-12-09T13:19:20.556Z,17.73
2022-12-09T13:21:47.789Z,17.53
2022-12-09T13:24:37.724Z,17.50
2022-12-09T13:27:24.222Z,16.80
2022-12-09T13:30:15.279Z,18.20
2022-12-09T13:33:08.427Z,18.60
2022-12-09T13:35:44.887Z,18.30
2022-12-09T13:38:32.690Z,16.83
2022-12-09T13:40:59.386Z,17.90
2022-12-09T13:43:28.527Z,18.07
2022-12-09T13:45:58.349Z,17.87
2022-12-09T13:48:24.774Z,18.17
2022-12-09T13:51:00.322Z,18.23
2022-12-09T13:53:33.635Z,18.93
2022-12-09T13:56:06.732Z,18.77
2022-12-09T13:59:12.858Z,20.10
2022-12-09T14:01:48.304Z,20.50
2022-12-09T14:04:31.200Z,20.17
2022-12-09T14:07:30.748Z,19.40
2022-12-09T14:09:58.035Z,19.90
2022-12-09T14:12:28.183Z,30.90
2022-12-09T14:15:05.018Z,25.73
2022-12-09T14:17:31.382Z,24.63
2022-12-09T14:20:23.851Z,21.93
2022-12-09T14:23:08.247Z,20.43
2022-12-09T14:25:34.582Z,19.97
2022-12-09T14:28:10.476Z,19.13
2022-12-09T14:31:04.802Z,19.47
2022-12-09T14:33:37.678Z,18.83
2022-12-09T14:36:24.446Z,19.77
2022-12-09T14:39:27.410Z,19.00
2022-12-09T14:42:18.387Z,17.70
2022-12-09T14:45:08.947Z,17.13
2022-12-09T14:47:42.015Z,20.97
2022-12-09T14:50:15.780Z,25.70
2022-12-09T14:53:01.934Z,29.73
2022-12-09T14:55:30.303Z,29.57
2022-12-09T14:57:59.927Z,26.40
2022-12-09T15:00:39.009Z,22.73
2022-12-09T15:03:33.289Z,22.33
2022-12-09T15:06:05.921Z,19.97
2022-12-09T15:08:37.961Z,20.53
2022-12-09T15:11:13.786Z,21.37
2022-12-09T15:13:43.048Z,21.93
2022-12-09T15:16:12.818Z,20.70
2022-12-09T15:18:42.084Z,20.90
2022-12-09T15:21:09.355Z,19.83
2022-12-09T15:23:39.018Z,21.57
2022-12-09T15:26:18.276Z,20.67
2022-12-09T15:28:48.619Z,20.40
2022-12-09T15:31:21.236Z,20.80
2022-12-09T15:33:52.769Z,20.33
2022-12-09T15:36:27.292Z,21.83
2022-12-09T15:39:02.165Z,21.70
2022-12-09T15:42:03.702Z,22.83
2022-12-09T15:44:33.411Z,21.97
2022-12-09T15:47:08.465Z,22.17
2022-12-09T15:49:45.524Z,22.13
2022-12-09T15:52:16.883Z,21.93
2022-12-09T15:54:44.623Z,22.03
2022-12-09T15:57:16.551Z,20.43
2022-12-09T15:59:47.759Z,20.40
2022-12-09T16:02:25.255Z,20.20
2022-12-09T16:04:54.971Z,21.10
2022-12-09T16:07:25.095Z,22.20
2022-12-09T16:10:09.157Z,21.83
2022-12-09T16:12:36.540Z,23.47
2022-12-09T16:15:05.692Z,25.47
2022-12-09T16:17:37.840Z,25.77
2022-12-09T16:20:44.008Z,26.77
2022-12-09T16:23:24.899Z,26.87
2022-12-09T16:25:55.246Z,26.77
2022-12-09T16:28:27.239Z,24.07
2022-12-09T16:31:02.697Z,21.87
2022-12-09T16:33:34.110Z,23.93
2022-12-09T16:36:03.933Z,26.10
2022-12-09T16:38:32.678Z,26.97
2022-12-09T16:41:08.544Z,23.80
2022-12-09T16:43:35.935Z,21.27
2022-12-09T16:46:28.237Z,22.03
2022-12-09T16:48:54.634Z,21.37
2022-12-09T16:51:24.876Z,21.33
2022-12-09T16:53:53.539Z,22.30
2022-12-09T16:56:28.822Z,23.43
2022-12-09T16:58:56.496Z,25.97
2022-12-09T17:01:31.752Z,22.43
2022-12-09T17:04:02.541Z,21.17
2022-12-09T17:06:29.085Z,20.50
2022-12-09T17:08:56.306Z,19.77
2022-12-09T17:11:22.903Z,18.83
2022-12-09T17:13:50.141Z,17.50
2022-12-09T17:16:17.397Z,17.90
2022-12-09T17:18:44.257Z,18.83
2022-12-09T17:21:13.131Z,19.30
2022-12-09T17:23:41.276Z,18.93
2022-12-09T17:26:13.338Z,18.30
2022-12-09T17:28:42.935Z,20.17
2022-12-09T17:31:19.460Z,20.27
2022-12-09T17:33:46.128Z,20.50
2022-12-09T17:36:14.497Z,20.67
2022-12-09T17:38:42.745Z,21.40
2022-12-09T17:41:13.364Z,20.30
2022-12-09T17:43:39.818Z,20.33
2022-12-09T17:46:06.871Z,20.73
2022-12-09T17:48:35.561Z,20.60
2022-12-09T17:51:10.900Z,21.90
2022-12-09T17:53:39.232Z,24.30
2022-12-09T17:56:20.145Z,22.10
2022-12-09T17:58:48.005Z,21.43
2022-12-09T18:01:19.932Z,21.33
2022-12-09T18:03:55.928Z,27.50
2022-12-09T18:06:22.771Z,29.33
2022-12-09T18:08:49.494Z,23.57
2022-12-09T18:11:16.166Z,25.37
2022-12-09T18:13:42.850Z,22.60
2022-12-09T18:16:16.060Z,23.97
2022-12-09T18:18:43.539Z,24.87
2022-12-09T18:21:15.552Z,25.10
2022-12-09T18:23:43.133Z,28.63
2022-12-09T18:26:13.066Z,26.43
2022-12-09T18:28:40.023Z,27.87
2022-12-09T18:31:15.368Z,27.73
2022-12-09T18:33:43.166Z,28.57
2022-12-09T18:36:13.473Z,27.50
2022-12-09T18:38:41.790Z,28.57
2022-12-09T18:41:13.645Z,28.30
2022-12-09T18:43:43.045Z,28.33
2022-12-09T18:46:16.092Z,26.40
2022-12-09T18:48:43.474Z,26.53
2022-12-09T18:51:18.811Z,31.47
2022-12-09T18:53:46.160Z,32.07
2022-12-09T18:56:13.850Z,30.97
2022-12-09T18:59:04.860Z,28.60
2022-12-09T19:01:29.961Z,28.90
2022-12-09T19:04:00.202Z,30.53
2022-12-09T19:06:32.953Z,31.20
2022-12-09T19:09:02.461Z,30.53
2022-12-09T19:11:32.551Z,35.20
2022-12-09T19:13:59.762Z,32.87
2022-12-09T19:16:27.772Z,31.57
2022-12-09T19:18:54.574Z,32.30
2022-12-09T19:21:22.792Z,27.83
2022-12-09T19:23:49.799Z,25.07
2022-12-09T19:26:19.506Z,25.50
2022-12-09T19:28:48.865Z,24.13
2022-12-09T19:31:25.010Z,22.90
2022-12-09T19:33:55.833Z,23.53
2022-12-09T19:36:23.591Z,23.37
2022-12-09T19:38:50.891Z,24.03
2022-12-09T19:41:18.449Z,24.97
2022-12-09T19:43:46.104Z,26.23
2022-12-09T19:46:14.562Z,26.40
2022-12-09T19:48:46.739Z,23.97
2022-12-09T19:51:16.207Z,25.07
2022-12-09T19:53:43.745Z,25.90
2022-12-09T19:56:20.504Z,25.10
2022-12-09T19:58:47.447Z,26.87
2022-12-09T20:01:20.795Z,26.10
2022-12-09T20:03:49.916Z,26.70
2022-12-09T20:06:19.616Z,26.70
2022-12-09T20:08:47.159Z,28.13
2022-12-09T20:11:19.764Z,27.40
2022-12-09T20:13:46.723Z,27.63
2022-12-09T20:16:16.344Z,29.43
2022-12-09T20:18:43.790Z,30.47
2022-12-09T20:21:13.034Z,28.90
2022-12-09T20:23:41.073Z,26.77
2022-12-09T20:26:12.001Z,31.87
2022-12-09T20:28:40.054Z,39.30
2022-12-09T20:31:08.859Z,35.27
2022-12-09T20:33:36.273Z,32.17
2022-12-09T20:36:12.305Z,30.53
2022-12-09T20:38:39.957Z,29.50
2022-12-09T20:41:09.899Z,29.47
2022-12-09T20:43:40.353Z,27.27
2022-12-09T20:46:09.270Z,26.00
2022-12-09T20:48:36.929Z,26.57
2022-12-09T20:51:08.385Z,27.50
2022-12-09T20:53:35.946Z,25.07
2022-12-09T20:56:03.859Z,26.47
2022-12-09T20:58:30.597Z,26.47
2022-12-09T21:01:04.827Z,23.23
2022-12-09T21:03:31.324Z,25.37
2022-12-09T21:05:58.438Z,23.80
2022-12-09T21:08:31.080Z,26.03
2022-12-09T21:11:04.260Z,26.33
2022-12-09T21:13:31.146Z,25.83
2022-12-09T21:16:10.081Z,26.20
2022-12-09T21:18:37.063Z,25.67
2022-12-09T21:21:04.477Z,27.03
2022-12-09T21:23:34.909Z,26.37
2022-12-09T21:26:21.549Z,24.07
2022-12-09T21:28:48.687Z,24.07
2022-12-09T21:31:18.284Z,25.57
2022-12-09T21:33:46.231Z,24.87
2022-12-09T21:36:15.425Z,26.80
2022-12-09T21:38:42.570Z,27.43
2022-12-09T21:41:15.711Z,25.93
2022-12-09T21:43:43.428Z,25.60
2022-12-09T21:46:20.828Z,26.03
2022-12-09T21:48:51.998Z,25.87
2022-12-09T21:51:19.708Z,24.47
2022-12-09T21:53:46.985Z,25.77
2022-12-09T21:56:26.643Z,25.90
2022-12-09T21:58:55.559Z,27.40
2022-12-09T22:01:23.607Z,28.93
2022-12-09T22:03:50.329Z,26.17
2022-12-09T22:06:17.632Z,25.80
2022-12-09T22:08:45.453Z,22.77
2022-12-09T22:11:18.758Z,26.30
2022-12-09T22:13:45.974Z,25.13
2022-12-09T22:16:24.279Z,25.50
2022-12-09T22:18:53.530Z,25.83
2022-12-09T22:21:25.227Z,25.47
2022-12-09T22:23:58.333Z,24.73
2022-12-09T22:26:25.815Z,24.83
2022-12-09T22:28:52.929Z,25.10
2022-12-09T22:31:25.678Z,24.40
2022-12-09T22:33:54.508Z,24.50
2022-12-09T22:36:22.299Z,23.33
2022-12-09T22:38:49.581Z,24.60
2022-12-09T22:41:19.828Z,26.47
2022-12-09T22:43:46.428Z,25.43
2022-12-09T22:46:17.567Z,26.60
2022-12-09T22:48:44.451Z,25.83
2022-12-09T22:51:16.367Z,26.40
2022-12-09T22:53:43.616Z,26.50
2022-12-09T22:56:12.342Z,27.27
2022-12-09T22:58:39.398Z,25.83
2022-12-09T23:01:12.184Z,25.90
2022-12-09T23:03:39.135Z,25.90
2022-12-09T23:06:06.347Z,24.33
2022-12-09T23:08:33.130Z,28.20
2022-12-09T23:11:05.119Z,26.00
2022-12-09T23:13:33.894Z,25.50
2022-12-09T23:16:05.687Z,25.80
2022-12-09T23:18:33.888Z,27.63
2022-12-09T23:21:12.181Z,27.97
2022-12-09T23:23:39.808Z,30.90
2022-12-09T23:26:09.331Z,28.50
2022-12-09T23:28:41.180Z,28.97
2022-12-09T23:31:10.039Z,28.33
2022-12-09T23:33:38.621Z,30.03
2022-12-09T23:36:07.617Z,29.07
2022-12-09T23:38:35.098Z,26.17
2022-12-09T23:41:02.389Z,28.57
2022-12-09T23:43:36.983Z,29.93
2022-12-09T23:46:14.476Z,31.00
2022-12-09T23:48:42.740Z,29.93
2022-12-09T23:51:16.577Z,30.70
2022-12-09T23:53:44.655Z,30.60
2022-12-09T23:56:15.741Z,29.23
2022-12-09T23:58:43.264Z,30.47
